sensor_id;sensor_type;location;lat;lon;timestamp;temperature;humidity
2100;DHT22;1055;48.854;9.302;2022-10-31T00:00:17;13.50;99.90
2100;DHT22;1055;48.854;9.302;2022-10-31T00:02:43;13.50;99.90
2100;DHT22;1055;48.854;9.302;2022-10-31T00:05:09;13.50;99.90
2100;DHT22;1055;48.854;9.302;2022-10-31T00:07:34;13.50;99.90
2100;DHT22;1055;48.854;9.302;2022-10-31T00:10:00;13.00;99.90
2100;DHT22;1055;48.854;9.302;2022-10-31T00:12:26;12.70;99.90
2100;DHT22;1055;48.854;9.302;2022-10-31T00:14:52;12.50;99.90
2100;DHT22;1055;48.854;9.302;2022-10-31T00:17:17;12.40;99.90
2100;DHT22;1055;48.854;9.302;2022-10-31T00:19:43;12.10;99.90
2100;DHT22;1055;48.854;9.302;2022-10-31T00:22:09;12.00;99.90
2100;DHT22;1055;48.854;9.302;2022-10-31T00:24:34;11.90;99.90
2100;DHT22;1055;48.854;9.302;2022-10-31T00:27:00;12.00;99.90
2100;DHT22;1055;48.854;9.302;2022-10-31T00:29:25;12.00;99.90
2100;DHT22;1055;48.854;9.302;2022-10-31T00:31:52;12.20;99.90
2100;DHT22;1055;48.854;9.302;2022-10-31T00:34:17;12.40;99.90
2100;DHT22;1055;48.854;9.302;2022-10-31T00:36:43;12.30;99.90
2100;DHT22;1055;48.854;9.302;2022-10-31T00:39:09;12.50;99.90
2100;DHT22;1055;48.854;9.302;2022-10-31T00:41:34;12.70;99.90
2100;DHT22;1055;48.854;9.302;2022-10-31T00:44:00;12.80;99.90
2100;DHT22;1055;48.854;9.302;2022-10-31T00:46:26;12.80;99.90
2100;DHT22;1055;48.854;9.302;2022-10-31T00:48:51;12.70;99.90
2100;DHT22;1055;48.854;9.302;2022-10-31T00:51:17;12.70;99.90
2100;DHT22;1055;48.854;9.302;2022-10-31T00:53:43;12.80;99.90
2100;DHT22;1055;48.854;9.302;2022-10-31T00:56:08;13.00;99.90
2100;DHT22;1055;48.854;9.302;2022-10-31T00:58:34;13.00;99.90
2100;DHT22;1055;48.854;9.302;2022-10-31T01:00:59;13.00;99.90
2100;DHT22;1055;48.854;9.302;2022-10-31T01:03:28;13.10;99.90
2100;DHT22;1055;48.854;9.302;2022-10-31T01:06:09;13.10;99.90
2100;DHT22;1055;48.854;9.302;2022-10-31T01:08:36;13.10;99.90
2100;DHT22;1055;48.854;9.302;2022-10-31T01:13:29;13.10;99.90
2100;DHT22;1055;48.854;9.302;2022-10-31T01:15:59;13.20;99.90
2100;DHT22;1055;48.854;9.302;2022-10-31T01:18:25;13.10;99.90
2100;DHT22;1055;48.854;9.302;2022-10-31T01:21:03;13.10;99.90
2100;DHT22;1055;48.854;9.302;2022-10-31T01:23:29;13.10;99.90
2100;DHT22;1055;48.854;9.302;2022-10-31T01:26:10;13.00;99.90
2100;DHT22;1055;48.854;9.302;2022-10-31T01:28:38;13.00;99.90
2100;DHT22;1055;48.854;9.302;2022-10-31T01:31:07;13.00;99.90
2100;DHT22;1055;48.854;9.302;2022-10-31T01:33:34;13.10;99.90
2100;DHT22;1055;48.854;9.302;2022-10-31T01:36:00;12.90;99.90
2100;DHT22;1055;48.854;9.302;2022-10-31T01:38:27;12.90;99.90
2100;DHT22;1055;48.854;9.302;2022-10-31T01:40:52;12.90;99.90
2100;DHT22;1055;48.854;9.302;2022-10-31T01:43:18;12.70;99.90
2100;DHT22;1055;48.854;9.302;2022-10-31T01:45:49;12.80;99.90
2100;DHT22;1055;48.854;9.302;2022-10-31T01:48:19;12.90;99.90
2100;DHT22;1055;48.854;9.302;2022-10-31T01:50:48;12.80;99.90
2100;DHT22;1055;48.854;9.302;2022-10-31T01:53:15;12.70;99.90
2100;DHT22;1055;48.854;9.302;2022-10-31T01:55:44;12.60;99.90
2100;DHT22;1055;48.854;9.302;2022-10-31T01:58:22;12.60;99.90
2100;DHT22;1055;48.854;9.302;2022-10-31T02:00:53;12.70;99.90
2100;DHT22;1055;48.854;9.302;2022-10-31T02:03:20;12.80;99.90
2100;DHT22;1055;48.854;9.302;2022-10-31T02:05:47;12.80;99.90
2100;DHT22;1055;48.854;9.302;2022-10-31T02:08:30;12.70;99.90
2100;DHT22;1055;48.854;9.302;2022-10-31T02:10:57;12.30;99.90
2100;DHT22;1055;48.854;9.302;2022-10-31T02:13:23;12.50;99.90
2100;DHT22;1055;48.854;9.302;2022-10-31T02:15:53;12.40;99.90
2100;DHT22;1055;48.854;9.302;2022-10-31T02:18:20;12.50;99.90
2100;DHT22;1055;48.854;9.302;2022-10-31T02:20:48;12.60;99.90
2100;DHT22;1055;48.854;9.302;2022-10-31T02:23:20;12.60;99.90
2100;DHT22;1055;48.854;9.302;2022-10-31T02:30:04;12.70;99.90
2100;DHT22;1055;48.854;9.302;2022-10-31T02:32:05;12.10;99.90
2100;DHT22;1055;48.854;9.302;2022-10-31T02:34:43;12.00;99.90
2100;DHT22;1055;48.854;9.302;2022-10-31T02:37:29;12.10;99.90
2100;DHT22;1055;48.854;9.302;2022-10-31T02:40:08;11.90;99.90
2100;DHT22;1055;48.854;9.302;2022-10-31T02:45:24;11.70;99.90
2100;DHT22;1055;48.854;9.302;2022-10-31T02:47:54;11.80;99.90
2100;DHT22;1055;48.854;9.302;2022-10-31T02:50:37;12.00;99.90
2100;DHT22;1055;48.854;9.302;2022-10-31T02:53:05;11.80;99.90
2100;DHT22;1055;48.854;9.302;2022-10-31T02:58:12;11.60;99.90
2100;DHT22;1055;48.854;9.302;2022-10-31T03:01:01;11.30;99.90
2100;DHT22;1055;48.854;9.302;2022-10-31T03:09:34;11.80;99.90
2100;DHT22;1055;48.854;9.302;2022-10-31T03:12:07;11.90;99.90
2100;DHT22;1055;48.854;9.302;2022-10-31T03:14:43;12.00;99.90
2100;DHT22;1055;48.854;9.302;2022-10-31T03:17:37;12.10;99.90
2100;DHT22;1055;48.854;9.302;2022-10-31T03:20:07;12.00;99.90
2100;DHT22;1055;48.854;9.302;2022-10-31T03:22:35;11.90;99.90
2100;DHT22;1055;48.854;9.302;2022-10-31T03:25:04;11.80;99.90
2100;DHT22;1055;48.854;9.302;2022-10-31T03:27:34;12.00;99.90
2100;DHT22;1055;48.854;9.302;2022-10-31T03:30:03;12.00;99.90
2100;DHT22;1055;48.854;9.302;2022-10-31T03:32:38;11.90;99.90
2100;DHT22;1055;48.854;9.302;2022-10-31T03:35:08;11.90;99.90
2100;DHT22;1055;48.854;9.302;2022-10-31T03:37:37;11.90;99.90
2100;DHT22;1055;48.854;9.302;2022-10-31T03:40:06;11.90;99.90
2100;DHT22;1055;48.854;9.302;2022-10-31T03:42:36;11.70;99.90
2100;DHT22;1055;48.854;9.302;2022-10-31T03:45:13;11.70;99.90
2100;DHT22;1055;48.854;9.302;2022-10-31T03:47:40;11.90;99.90
2100;DHT22;1055;48.854;9.302;2022-10-31T03:50:08;11.90;99.90
2100;DHT22;1055;48.854;9.302;2022-10-31T03:52:57;11.80;99.90
2100;DHT22;1055;48.854;9.302;2022-10-31T03:55:37;11.80;99.90
2100;DHT22;1055;48.854;9.302;2022-10-31T03:58:09;11.80;99.90
2100;DHT22;1055;48.854;9.302;2022-10-31T04:00:39;11.70;99.90
2100;DHT22;1055;48.854;9.302;2022-10-31T04:03:15;11.70;99.90
2100;DHT22;1055;48.854;9.302;2022-10-31T04:05:45;11.70;99.90
2100;DHT22;1055;48.854;9.302;2022-10-31T04:08:15;11.70;99.90
2100;DHT22;1055;48.854;9.302;2022-10-31T04:10:43;11.60;99.90
2100;DHT22;1055;48.854;9.302;2022-10-31T04:13:13;11.70;99.90
2100;DHT22;1055;48.854;9.302;2022-10-31T04:15:41;11.60;99.90
2100;DHT22;1055;48.854;9.302;2022-10-31T04:18:08;11.70;99.90
2100;DHT22;1055;48.854;9.302;2022-10-31T04:20:38;11.70;99.90
2100;DHT22;1055;48.854;9.302;2022-10-31T04:23:10;11.80;99.90
2100;DHT22;1055;48.854;9.302;2022-10-31T04:25:36;11.60;99.90
2100;DHT22;1055;48.854;9.302;2022-10-31T04:28:02;11.10;99.90
2100;DHT22;1055;48.854;9.302;2022-10-31T04:30:28;10.90;99.90
2100;DHT22;1055;48.854;9.302;2022-10-31T04:32:53;10.70;99.90
2100;DHT22;1055;48.854;9.302;2022-10-31T04:35:19;10.60;99.90
2100;DHT22;1055;48.854;9.302;2022-10-31T04:37:44;10.60;99.90
2100;DHT22;1055;48.854;9.302;2022-10-31T04:40:10;10.80;99.90
2100;DHT22;1055;48.854;9.302;2022-10-31T04:42:36;11.00;99.90
2100;DHT22;1055;48.854;9.302;2022-10-31T04:45:01;11.10;99.90
2100;DHT22;1055;48.854;9.302;2022-10-31T04:47:27;11.20;99.90
2100;DHT22;1055;48.854;9.302;2022-10-31T04:49:55;11.20;99.90
2100;DHT22;1055;48.854;9.302;2022-10-31T04:52:21;11.40;99.90
2100;DHT22;1055;48.854;9.302;2022-10-31T04:54:46;11.50;99.90
2100;DHT22;1055;48.854;9.302;2022-10-31T04:57:12;11.50;99.90
2100;DHT22;1055;48.854;9.302;2022-10-31T04:59:37;11.50;99.90
2100;DHT22;1055;48.854;9.302;2022-10-31T05:02:03;11.60;99.90
2100;DHT22;1055;48.854;9.302;2022-10-31T05:04:28;11.50;99.90
2100;DHT22;1055;48.854;9.302;2022-10-31T05:06:54;11.60;99.90
2100;DHT22;1055;48.854;9.302;2022-10-31T05:09:19;11.50;99.90
2100;DHT22;1055;48.854;9.302;2022-10-31T05:11:45;11.50;99.90
2100;DHT22;1055;48.854;9.302;2022-10-31T05:14:11;11.40;99.90
2100;DHT22;1055;48.854;9.302;2022-10-31T05:16:36;11.00;99.90
2100;DHT22;1055;48.854;9.302;2022-10-31T05:19:02;11.20;99.90
2100;DHT22;1055;48.854;9.302;2022-10-31T05:21:27;11.30;99.90
2100;DHT22;1055;48.854;9.302;2022-10-31T05:23:53;11.30;99.90
2100;DHT22;1055;48.854;9.302;2022-10-31T05:26:18;11.00;99.90
2100;DHT22;1055;48.854;9.302;2022-10-31T05:28:44;10.70;99.90
2100;DHT22;1055;48.854;9.302;2022-10-31T05:31:10;10.20;99.90
2100;DHT22;1055;48.854;9.302;2022-10-31T05:33:35;10.00;99.90
2100;DHT22;1055;48.854;9.302;2022-10-31T05:36:01;9.80;99.90
2100;DHT22;1055;48.854;9.302;2022-10-31T05:38:26;9.60;99.90
2100;DHT22;1055;48.854;9.302;2022-10-31T05:40:55;9.50;99.90
2100;DHT22;1055;48.854;9.302;2022-10-31T05:43:23;9.40;99.90
2100;DHT22;1055;48.854;9.302;2022-10-31T05:45:52;9.50;99.90
2100;DHT22;1055;48.854;9.302;2022-10-31T05:48:18;9.40;99.90
2100;DHT22;1055;48.854;9.302;2022-10-31T05:50:43;9.40;99.90
2100;DHT22;1055;48.854;9.302;2022-10-31T05:53:09;9.40;99.90
2100;DHT22;1055;48.854;9.302;2022-10-31T05:55:34;9.30;99.90
2100;DHT22;1055;48.854;9.302;2022-10-31T05:58:00;9.30;99.90
2100;DHT22;1055;48.854;9.302;2022-10-31T06:00:26;9.20;99.90
2100;DHT22;1055;48.854;9.302;2022-10-31T06:03:02;9.10;99.90
2100;DHT22;1055;48.854;9.302;2022-10-31T06:05:29;9.10;99.90
2100;DHT22;1055;48.854;9.302;2022-10-31T06:07:56;9.10;99.90
2100;DHT22;1055;48.854;9.302;2022-10-31T06:10:21;9.20;99.90
2100;DHT22;1055;48.854;9.302;2022-10-31T06:12:48;9.30;99.90
2100;DHT22;1055;48.854;9.302;2022-10-31T06:15:17;9.40;99.90
2100;DHT22;1055;48.854;9.302;2022-10-31T06:17:58;9.40;99.90
2100;DHT22;1055;48.854;9.302;2022-10-31T06:20:26;9.40;99.90
2100;DHT22;1055;48.854;9.302;2022-10-31T06:22:53;9.40;99.90
2100;DHT22;1055;48.854;9.302;2022-10-31T06:25:22;9.40;99.90
2100;DHT22;1055;48.854;9.302;2022-10-31T06:27:54;9.70;99.90
2100;DHT22;1055;48.854;9.302;2022-10-31T06:30:25;9.90;99.90
2100;DHT22;1055;48.854;9.302;2022-10-31T06:32:53;9.80;99.90
2100;DHT22;1055;48.854;9.302;2022-10-31T06:35:21;10.10;99.90
2100;DHT22;1055;48.854;9.302;2022-10-31T06:37:55;10.40;99.90
2100;DHT22;1055;48.854;9.302;2022-10-31T06:40:21;10.50;99.90
2100;DHT22;1055;48.854;9.302;2022-10-31T06:42:46;10.40;99.90
2100;DHT22;1055;48.854;9.302;2022-10-31T06:45:12;10.10;99.90
2100;DHT22;1055;48.854;9.302;2022-10-31T06:47:38;10.30;99.90
2100;DHT22;1055;48.854;9.302;2022-10-31T06:50:04;10.30;99.90
2100;DHT22;1055;48.854;9.302;2022-10-31T06:52:30;10.50;99.90
2100;DHT22;1055;48.854;9.302;2022-10-31T06:54:55;10.40;99.90
2100;DHT22;1055;48.854;9.302;2022-10-31T06:57:21;10.40;99.90
2100;DHT22;1055;48.854;9.302;2022-10-31T06:59:46;10.40;99.90
2100;DHT22;1055;48.854;9.302;2022-10-31T07:02:12;10.80;99.90
2100;DHT22;1055;48.854;9.302;2022-10-31T07:04:38;10.70;99.90
2100;DHT22;1055;48.854;9.302;2022-10-31T07:07:03;11.00;99.90
2100;DHT22;1055;48.854;9.302;2022-10-31T07:09:29;11.20;99.90
2100;DHT22;1055;48.854;9.302;2022-10-31T07:11:54;10.70;99.90
2100;DHT22;1055;48.854;9.302;2022-10-31T07:14:20;10.80;99.90
2100;DHT22;1055;48.854;9.302;2022-10-31T07:16:49;10.90;99.90
2100;DHT22;1055;48.854;9.302;2022-10-31T07:19:16;10.60;99.90
2100;DHT22;1055;48.854;9.302;2022-10-31T07:21:41;10.70;99.90
2100;DHT22;1055;48.854;9.302;2022-10-31T07:24:07;11.00;99.90
2100;DHT22;1055;48.854;9.302;2022-10-31T07:26:32;10.60;99.90
2100;DHT22;1055;48.854;9.302;2022-10-31T07:28:59;10.50;99.90
2100;DHT22;1055;48.854;9.302;2022-10-31T07:31:25;10.50;99.90
2100;DHT22;1055;48.854;9.302;2022-10-31T07:33:51;10.50;99.90
2100;DHT22;1055;48.854;9.302;2022-10-31T07:36:16;10.60;99.90
2100;DHT22;1055;48.854;9.302;2022-10-31T07:38:42;10.60;99.90
2100;DHT22;1055;48.854;9.302;2022-10-31T07:41:08;10.80;99.90
2100;DHT22;1055;48.854;9.302;2022-10-31T07:43:34;10.80;99.90
2100;DHT22;1055;48.854;9.302;2022-10-31T07:45:59;11.00;99.90
2100;DHT22;1055;48.854;9.302;2022-10-31T07:48:25;11.00;99.90
2100;DHT22;1055;48.854;9.302;2022-10-31T07:50:51;11.10;99.90
2100;DHT22;1055;48.854;9.302;2022-10-31T07:53:16;11.20;99.90
2100;DHT22;1055;48.854;9.302;2022-10-31T07:55:42;11.30;99.90
2100;DHT22;1055;48.854;9.302;2022-10-31T07:58:13;11.40;99.90
2100;DHT22;1055;48.854;9.302;2022-10-31T08:00:41;11.50;99.90
2100;DHT22;1055;48.854;9.302;2022-10-31T08:03:09;11.70;99.90
2100;DHT22;1055;48.854;9.302;2022-10-31T08:05:35;11.70;99.90
2100;DHT22;1055;48.854;9.302;2022-10-31T08:08:01;11.80;99.90
2100;DHT22;1055;48.854;9.302;2022-10-31T08:10:27;11.70;99.90
2100;DHT22;1055;48.854;9.302;2022-10-31T08:13:04;11.70;99.90
2100;DHT22;1055;48.854;9.302;2022-10-31T08:15:31;11.80;99.90
2100;DHT22;1055;48.854;9.302;2022-10-31T08:17:57;11.90;99.90
2100;DHT22;1055;48.854;9.302;2022-10-31T08:20:23;12.00;99.90
2100;DHT22;1055;48.854;9.302;2022-10-31T08:22:53;11.90;99.90
2100;DHT22;1055;48.854;9.302;2022-10-31T08:25:19;11.80;99.90
2100;DHT22;1055;48.854;9.302;2022-10-31T08:27:49;11.60;99.90
2100;DHT22;1055;48.854;9.302;2022-10-31T08:30:15;11.60;99.90
2100;DHT22;1055;48.854;9.302;2022-10-31T08:32:41;11.70;99.90
2100;DHT22;1055;48.854;9.302;2022-10-31T08:35:07;11.60;99.90
2100;DHT22;1055;48.854;9.302;2022-10-31T08:37:32;11.70;99.90
2100;DHT22;1055;48.854;9.302;2022-10-31T08:39:58;12.00;99.90
2100;DHT22;1055;48.854;9.302;2022-10-31T08:42:24;12.20;99.90
2100;DHT22;1055;48.854;9.302;2022-10-31T08:44:49;12.40;99.90
2100;DHT22;1055;48.854;9.302;2022-10-31T08:47:15;12.60;99.90
2100;DHT22;1055;48.854;9.302;2022-10-31T08:49:40;12.70;99.90
2100;DHT22;1055;48.854;9.302;2022-10-31T08:52:06;12.80;99.90
2100;DHT22;1055;48.854;9.302;2022-10-31T08:54:31;13.00;99.90
2100;DHT22;1055;48.854;9.302;2022-10-31T08:56:57;13.00;99.90
2100;DHT22;1055;48.854;9.302;2022-10-31T08:59:23;13.00;99.90
2100;DHT22;1055;48.854;9.302;2022-10-31T09:01:48;13.20;99.90
2100;DHT22;1055;48.854;9.302;2022-10-31T09:04:14;13.50;99.90
2100;DHT22;1055;48.854;9.302;2022-10-31T09:06:39;13.70;99.90
2100;DHT22;1055;48.854;9.302;2022-10-31T09:09:05;13.90;99.90
2100;DHT22;1055;48.854;9.302;2022-10-31T09:11:31;13.70;99.90
2100;DHT22;1055;48.854;9.302;2022-10-31T09:13:56;13.90;99.90
2100;DHT22;1055;48.854;9.302;2022-10-31T09:16:22;13.70;99.90
2100;DHT22;1055;48.854;9.302;2022-10-31T09:18:48;14.00;99.90
2100;DHT22;1055;48.854;9.302;2022-10-31T09:21:13;13.80;99.90
2100;DHT22;1055;48.854;9.302;2022-10-31T09:23:39;14.00;99.90
2100;DHT22;1055;48.854;9.302;2022-10-31T09:26:05;13.70;99.90
2100;DHT22;1055;48.854;9.302;2022-10-31T09:28:32;13.60;99.90
2100;DHT22;1055;48.854;9.302;2022-10-31T09:30:58;13.80;99.90
2100;DHT22;1055;48.854;9.302;2022-10-31T09:33:23;14.10;99.90
2100;DHT22;1055;48.854;9.302;2022-10-31T09:35:49;14.30;99.90
2100;DHT22;1055;48.854;9.302;2022-10-31T09:38:18;13.90;99.90
2100;DHT22;1055;48.854;9.302;2022-10-31T09:49:37;14.40;99.90
2100;DHT22;1055;48.854;9.302;2022-10-31T09:52:43;14.50;99.90
2100;DHT22;1055;48.854;9.302;2022-10-31T09:55:26;14.00;99.90
2100;DHT22;1055;48.854;9.302;2022-10-31T09:57:55;14.40;99.90
2100;DHT22;1055;48.854;9.302;2022-10-31T10:00:24;14.70;99.90
2100;DHT22;1055;48.854;9.302;2022-10-31T10:02:54;14.60;99.90
2100;DHT22;1055;48.854;9.302;2022-10-31T10:05:28;14.50;99.90
2100;DHT22;1055;48.854;9.302;2022-10-31T10:08:08;14.40;99.90
2100;DHT22;1055;48.854;9.302;2022-10-31T10:16:35;14.50;99.90
2100;DHT22;1055;48.854;9.302;2022-10-31T10:24:53;14.30;99.90
2100;DHT22;1055;48.854;9.302;2022-10-31T10:27:57;14.40;99.90
2100;DHT22;1055;48.854;9.302;2022-10-31T10:30:20;14.40;99.90
2100;DHT22;1055;48.854;9.302;2022-10-31T10:32:50;14.70;99.90
2100;DHT22;1055;48.854;9.302;2022-10-31T10:35:24;14.80;99.90
2100;DHT22;1055;48.854;9.302;2022-10-31T10:37:56;14.80;99.90
2100;DHT22;1055;48.854;9.302;2022-10-31T10:40:27;15.00;99.90
2100;DHT22;1055;48.854;9.302;2022-10-31T10:59:37;15.80;99.90
2100;DHT22;1055;48.854;9.302;2022-10-31T11:02:03;15.90;99.90
2100;DHT22;1055;48.854;9.302;2022-10-31T11:04:38;15.70;99.90
2100;DHT22;1055;48.854;9.302;2022-10-31T11:07:09;15.90;99.90
2100;DHT22;1055;48.854;9.302;2022-10-31T11:09:36;15.80;99.90
2100;DHT22;1055;48.854;9.302;2022-10-31T11:12:11;16.10;99.90
2100;DHT22;1055;48.854;9.302;2022-10-31T11:17:25;16.20;99.90
2100;DHT22;1055;48.854;9.302;2022-10-31T11:20:22;16.20;99.90
2100;DHT22;1055;48.854;9.302;2022-10-31T11:22:48;16.50;99.90
2100;DHT22;1055;48.854;9.302;2022-10-31T11:25:25;16.50;99.90
2100;DHT22;1055;48.854;9.302;2022-10-31T11:28:04;16.70;99.90
2100;DHT22;1055;48.854;9.302;2022-10-31T11:30:35;16.80;99.90
2100;DHT22;1055;48.854;9.302;2022-10-31T11:33:01;16.60;99.90
2100;DHT22;1055;48.854;9.302;2022-10-31T11:35:29;16.90;99.90
2100;DHT22;1055;48.854;9.302;2022-10-31T11:38:05;16.80;99.90
2100;DHT22;1055;48.854;9.302;2022-10-31T11:40:31;16.80;99.90
2100;DHT22;1055;48.854;9.302;2022-10-31T11:42:57;17.00;99.90
2100;DHT22;1055;48.854;9.302;2022-10-31T11:45:31;17.20;99.90
2100;DHT22;1055;48.854;9.302;2022-10-31T11:47:58;17.30;99.90
2100;DHT22;1055;48.854;9.302;2022-10-31T11:52:58;17.40;99.90
2100;DHT22;1055;48.854;9.302;2022-10-31T11:55:35;17.50;99.90
2100;DHT22;1055;48.854;9.302;2022-10-31T11:58:02;17.40;99.90
2100;DHT22;1055;48.854;9.302;2022-10-31T12:00:37;17.30;99.90
2100;DHT22;1055;48.854;9.302;2022-10-31T12:05:52;17.40;99.90
2100;DHT22;1055;48.854;9.302;2022-10-31T12:08:18;17.30;99.90
2100;DHT22;1055;48.854;9.302;2022-10-31T12:25:16;17.80;99.90
2100;DHT22;1055;48.854;9.302;2022-10-31T12:30:23;18.00;99.90
2100;DHT22;1055;48.854;9.302;2022-10-31T12:38:44;18.80;99.90
2100;DHT22;1055;48.854;9.302;2022-10-31T12:42:03;19.00;99.90
2100;DHT22;1055;48.854;9.302;2022-10-31T12:53:21;19.20;99.90
2100;DHT22;1055;48.854;9.302;2022-10-31T12:56:09;19.20;99.90
2100;DHT22;1055;48.854;9.302;2022-10-31T12:58:51;19.10;99.90
2100;DHT22;1055;48.854;9.302;2022-10-31T13:01:36;19.20;99.90
2100;DHT22;1055;48.854;9.302;2022-10-31T13:07:19;18.70;99.90
2100;DHT22;1055;48.854;9.302;2022-10-31T13:10:06;18.70;99.90
2100;DHT22;1055;48.854;9.302;2022-10-31T13:12:34;18.90;99.90
2100;DHT22;1055;48.854;9.302;2022-10-31T13:15:32;19.00;99.90
2100;DHT22;1055;48.854;9.302;2022-10-31T13:18:05;19.00;99.90
2100;DHT22;1055;48.854;9.302;2022-10-31T13:20:34;19.00;99.90
2100;DHT22;1055;48.854;9.302;2022-10-31T13:23:16;18.90;99.90
2100;DHT22;1055;48.854;9.302;2022-10-31T13:25:52;19.00;99.90
2100;DHT22;1055;48.854;9.302;2022-10-31T13:31:09;18.50;99.90
2100;DHT22;1055;48.854;9.302;2022-10-31T13:33:43;18.40;99.90
2100;DHT22;1055;48.854;9.302;2022-10-31T13:36:20;18.60;99.90
2100;DHT22;1055;48.854;9.302;2022-10-31T13:41:30;18.60;99.90
2100;DHT22;1055;48.854;9.302;2022-10-31T13:44:18;18.80;99.90
2100;DHT22;1055;48.854;9.302;2022-10-31T13:46:45;19.00;99.90
2100;DHT22;1055;48.854;9.302;2022-10-31T13:49:37;18.90;99.90
2100;DHT22;1055;48.854;9.302;2022-10-31T13:54:37;19.00;99.90
2100;DHT22;1055;48.854;9.302;2022-10-31T13:57:07;19.20;99.90
2100;DHT22;1055;48.854;9.302;2022-10-31T13:59:38;19.40;99.90
2100;DHT22;1055;48.854;9.302;2022-10-31T14:02:15;19.40;99.90
2100;DHT22;1055;48.854;9.302;2022-10-31T14:04:51;19.30;99.90
2100;DHT22;1055;48.854;9.302;2022-10-31T14:07:22;19.40;99.90
2100;DHT22;1055;48.854;9.302;2022-10-31T14:12:40;19.80;99.90
2100;DHT22;1055;48.854;9.302;2022-10-31T14:15:17;19.90;99.90
2100;DHT22;1055;48.854;9.302;2022-10-31T14:22:40;19.80;99.90
2100;DHT22;1055;48.854;9.302;2022-10-31T14:25:29;19.90;99.90
2100;DHT22;1055;48.854;9.302;2022-10-31T14:27:56;19.60;99.90
2100;DHT22;1055;48.854;9.302;2022-10-31T14:30:24;19.90;99.90
2100;DHT22;1055;48.854;9.302;2022-10-31T14:33:18;20.00;99.90
2100;DHT22;1055;48.854;9.302;2022-10-31T14:41:21;20.10;99.90
2100;DHT22;1055;48.854;9.302;2022-10-31T14:46:25;20.10;99.90
2100;DHT22;1055;48.854;9.302;2022-10-31T14:51:43;20.10;99.90
2100;DHT22;1055;48.854;9.302;2022-10-31T14:54:18;20.10;99.90
2100;DHT22;1055;48.854;9.302;2022-10-31T14:56:50;20.10;99.90
2100;DHT22;1055;48.854;9.302;2022-10-31T14:59:22;20.10;99.90
2100;DHT22;1055;48.854;9.302;2022-10-31T15:01:58;20.10;99.90
2100;DHT22;1055;48.854;9.302;2022-10-31T15:04:27;20.10;99.90
2100;DHT22;1055;48.854;9.302;2022-10-31T15:07:15;20.10;99.90
2100;DHT22;1055;48.854;9.302;2022-10-31T15:09:42;20.10;99.90
2100;DHT22;1055;48.854;9.302;2022-10-31T15:12:31;20.10;99.90
2100;DHT22;1055;48.854;9.302;2022-10-31T15:15:09;20.10;99.90
2100;DHT22;1055;48.854;9.302;2022-10-31T15:17:35;20.10;99.90
2100;DHT22;1055;48.854;9.302;2022-10-31T15:20:01;20.00;99.90
2100;DHT22;1055;48.854;9.302;2022-10-31T15:22:30;20.10;99.90
2100;DHT22;1055;48.854;9.302;2022-10-31T15:24:57;20.10;99.90
2100;DHT22;1055;48.854;9.302;2022-10-31T15:27:23;20.10;99.90
2100;DHT22;1055;48.854;9.302;2022-10-31T15:29:52;20.10;99.90
2100;DHT22;1055;48.854;9.302;2022-10-31T15:32:26;20.10;99.90
2100;DHT22;1055;48.854;9.302;2022-10-31T15:34:54;20.10;99.90
2100;DHT22;1055;48.854;9.302;2022-10-31T15:37:22;20.20;99.90
2100;DHT22;1055;48.854;9.302;2022-10-31T15:39:50;20.10;99.90
2100;DHT22;1055;48.854;9.302;2022-10-31T15:42:29;20.20;99.90
2100;DHT22;1055;48.854;9.302;2022-10-31T15:45:02;19.90;99.90
2100;DHT22;1055;48.854;9.302;2022-10-31T15:47:30;19.80;99.90
2100;DHT22;1055;48.854;9.302;2022-10-31T15:49:59;19.70;99.90
2100;DHT22;1055;48.854;9.302;2022-10-31T15:52:43;19.60;99.90
2100;DHT22;1055;48.854;9.302;2022-10-31T15:57:52;19.50;99.90
2100;DHT22;1055;48.854;9.302;2022-10-31T16:00:30;19.40;99.90
2100;DHT22;1055;48.854;9.302;2022-10-31T16:11:00;19.10;99.90
2100;DHT22;1055;48.854;9.302;2022-10-31T16:13:33;18.90;99.90
2100;DHT22;1055;48.854;9.302;2022-10-31T16:16:02;18.90;99.90
2100;DHT22;1055;48.854;9.302;2022-10-31T16:18:34;18.80;99.90
2100;DHT22;1055;48.854;9.302;2022-10-31T16:21:00;18.80;99.90
2100;DHT22;1055;48.854;9.302;2022-10-31T16:23:27;18.70;99.90
2100;DHT22;1055;48.854;9.302;2022-10-31T16:25:53;18.50;99.90
2100;DHT22;1055;48.854;9.302;2022-10-31T16:28:21;18.20;99.90
2100;DHT22;1055;48.854;9.302;2022-10-31T16:30:48;18.20;99.90
2100;DHT22;1055;48.854;9.302;2022-10-31T16:33:32;18.20;99.90
2100;DHT22;1055;48.854;9.302;2022-10-31T16:38:54;18.10;99.90
2100;DHT22;1055;48.854;9.302;2022-10-31T16:41:20;18.10;99.90
2100;DHT22;1055;48.854;9.302;2022-10-31T16:43:46;18.10;99.90
2100;DHT22;1055;48.854;9.302;2022-10-31T16:46:24;18.10;99.90
2100;DHT22;1055;48.854;9.302;2022-10-31T16:48:50;17.90;99.90
2100;DHT22;1055;48.854;9.302;2022-10-31T16:51:16;17.90;99.90
2100;DHT22;1055;48.854;9.302;2022-10-31T16:53:42;17.80;99.90
2100;DHT22;1055;48.854;9.302;2022-10-31T16:56:15;17.80;99.90
2100;DHT22;1055;48.854;9.302;2022-10-31T16:58:41;17.60;99.90
2100;DHT22;1055;48.854;9.302;2022-10-31T17:01:07;17.40;99.90
2100;DHT22;1055;48.854;9.302;2022-10-31T17:03:33;17.40;99.90
2100;DHT22;1055;48.854;9.302;2022-10-31T17:05:58;17.40;99.90
2100;DHT22;1055;48.854;9.302;2022-10-31T17:08:24;17.30;99.90
2100;DHT22;1055;48.854;9.302;2022-10-31T17:10:51;17.20;99.90
2100;DHT22;1055;48.854;9.302;2022-10-31T17:13:27;16.30;99.90
2100;DHT22;1055;48.854;9.302;2022-10-31T17:15:56;16.20;99.90
2100;DHT22;1055;48.854;9.302;2022-10-31T17:18:22;16.10;99.90
2100;DHT22;1055;48.854;9.302;2022-10-31T17:20:49;16.00;99.90
2100;DHT22;1055;48.854;9.302;2022-10-31T17:23:15;16.20;99.90
2100;DHT22;1055;48.854;9.302;2022-10-31T17:25:42;16.40;99.90
2100;DHT22;1055;48.854;9.302;2022-10-31T17:28:11;16.20;99.90
2100;DHT22;1055;48.854;9.302;2022-10-31T17:30:38;16.30;99.90
2100;DHT22;1055;48.854;9.302;2022-10-31T17:33:04;16.50;99.90
2100;DHT22;1055;48.854;9.302;2022-10-31T17:35:30;16.40;99.90
2100;DHT22;1055;48.854;9.302;2022-10-31T17:37:56;16.30;99.90
2100;DHT22;1055;48.854;9.302;2022-10-31T17:40:22;16.30;99.90
2100;DHT22;1055;48.854;9.302;2022-10-31T17:42:52;16.30;99.90
2100;DHT22;1055;48.854;9.302;2022-10-31T17:45:19;16.10;99.90
2100;DHT22;1055;48.854;9.302;2022-10-31T17:47:49;15.50;99.90
2100;DHT22;1055;48.854;9.302;2022-10-31T17:50:16;15.30;99.90
2100;DHT22;1055;48.854;9.302;2022-10-31T17:52:42;15.00;99.90
2100;DHT22;1055;48.854;9.302;2022-10-31T17:55:08;14.90;99.90
2100;DHT22;1055;48.854;9.302;2022-10-31T17:57:35;14.80;99.90
2100;DHT22;1055;48.854;9.302;2022-10-31T18:00:02;14.90;99.90
2100;DHT22;1055;48.854;9.302;2022-10-31T18:02:28;14.50;99.90
2100;DHT22;1055;48.854;9.302;2022-10-31T18:04:54;14.20;99.90
2100;DHT22;1055;48.854;9.302;2022-10-31T18:07:19;14.30;99.90
2100;DHT22;1055;48.854;9.302;2022-10-31T18:09:46;14.40;99.90
2100;DHT22;1055;48.854;9.302;2022-10-31T18:12:12;14.60;99.90
2100;DHT22;1055;48.854;9.302;2022-10-31T18:14:37;14.90;99.90
2100;DHT22;1055;48.854;9.302;2022-10-31T18:17:03;15.00;99.90
2100;DHT22;1055;48.854;9.302;2022-10-31T18:19:29;14.70;99.90
2100;DHT22;1055;48.854;9.302;2022-10-31T18:21:54;14.70;99.90
2100;DHT22;1055;48.854;9.302;2022-10-31T18:24:20;14.80;99.90
2100;DHT22;1055;48.854;9.302;2022-10-31T18:26:45;15.00;99.90
2100;DHT22;1055;48.854;9.302;2022-10-31T18:29:11;15.10;99.90
2100;DHT22;1055;48.854;9.302;2022-10-31T18:31:37;15.20;99.90
2100;DHT22;1055;48.854;9.302;2022-10-31T18:34:02;15.10;99.90